createdAt,value
2018-06-21T16:30:56.525Z,21.81
2018-06-21T16:33:30.409Z,21.44
2018-06-21T16:35:58.641Z,21.41
2018-06-21T16:38:27.035Z,21.30
2018-06-21T16:40:55.404Z,21.41
2018-06-21T16:43:23.677Z,21.21
2018-06-21T16:45:51.947Z,21.53
2018-06-21T16:48:20.205Z,21.50
2018-06-21T16:50:52.776Z,21.33
2018-06-21T16:53:21.027Z,21.34
2018-06-21T16:55:49.611Z,21.27
2018-06-21T16:58:24.580Z,21.22
2018-06-21T17:00:57.559Z,21.10
2018-06-21T17:03:26.433Z,21.44
2018-06-21T17:05:55.321Z,21.54
2018-06-21T17:08:24.513Z,21.58
2018-06-21T17:10:53.183Z,21.23
2018-06-21T17:13:23.181Z,21.16
2018-06-21T17:15:56.173Z,21.33
2018-06-21T17:18:29.023Z,21.26
2018-06-21T17:20:57.546Z,21.51
2018-06-21T17:26:05.326Z,21.29
2018-06-21T17:28:34.019Z,21.47
2018-06-21T17:31:07.310Z,21.14
2018-06-21T17:33:36.246Z,20.91
2018-06-21T17:36:05.822Z,21.00
2018-06-21T17:38:38.601Z,20.65
2018-06-21T17:41:06.977Z,20.63
2018-06-21T17:43:35.280Z,20.64
2018-06-21T17:46:03.923Z,20.52
2018-06-21T17:48:32.510Z,20.54
2018-06-21T17:51:01.549Z,20.55
2018-06-21T17:53:30.147Z,20.30
2018-06-21T17:55:58.797Z,20.34
2018-06-21T17:58:31.433Z,20.19
2018-06-21T18:01:03.773Z,20.17
2018-06-21T18:03:32.169Z,20.07
2018-06-21T18:06:01.288Z,19.96
2018-06-21T18:08:29.709Z,19.84
2018-06-21T18:10:58.110Z,19.76
2018-06-21T18:13:27.198Z,19.64
2018-06-21T18:15:55.581Z,19.45
2018-06-21T18:18:23.817Z,19.54
2018-06-21T18:20:52.116Z,19.69
2018-06-21T18:23:20.504Z,19.32
2018-06-21T18:25:48.936Z,19.32
2018-06-21T18:28:17.335Z,19.33
2018-06-21T18:30:46.336Z,19.11
2018-06-21T18:33:16.488Z,19.17
2018-06-21T18:35:49.281Z,19.07
2018-06-21T18:38:18.698Z,19.01
2018-06-21T18:40:47.173Z,18.90
2018-06-21T18:43:24.261Z,18.82
2018-06-21T18:45:56.832Z,18.77
2018-06-21T18:51:21.007Z,18.70
2018-06-21T18:53:49.284Z,18.64
2018-06-21T18:56:17.853Z,18.56
2018-06-21T18:58:47.794Z,18.51
2018-06-21T19:01:17.284Z,18.45
2018-06-21T19:03:45.770Z,18.29
2018-06-21T19:06:19.779Z,18.36
2018-06-21T19:08:54.841Z,18.09
2018-06-21T19:11:33.147Z,18.24
2018-06-21T19:14:01.708Z,18.20
2018-06-21T19:16:30.072Z,17.99
2018-06-21T19:18:58.639Z,17.95
2018-06-21T19:21:33.496Z,17.77
2018-06-21T19:24:05.273Z,17.75
2018-06-21T19:26:35.352Z,17.67
2018-06-21T19:29:04.290Z,17.61
2018-06-21T19:31:34.169Z,17.53
2018-06-21T19:34:04.950Z,17.41
2018-06-21T19:36:33.625Z,17.47
2018-06-21T19:39:02.783Z,17.25
2018-06-21T19:41:31.192Z,17.21
2018-06-21T19:43:59.737Z,17.16
2018-06-21T19:46:28.700Z,17.06
2018-06-21T19:48:57.478Z,16.98
2018-06-21T19:51:28.041Z,16.87
2018-06-21T19:53:56.626Z,16.86
2018-06-21T19:56:25.627Z,16.81
2018-06-21T19:58:54.065Z,16.70
2018-06-21T20:01:27.091Z,16.69
2018-06-21T20:03:56.985Z,16.63
2018-06-21T20:06:26.632Z,16.80
2018-06-21T20:09:00.883Z,16.58
2018-06-21T20:11:36.422Z,16.36
2018-06-21T20:14:09.311Z,16.37
2018-06-21T20:16:37.660Z,16.39
2018-06-21T20:19:13.531Z,16.29
2018-06-21T20:21:46.253Z,16.13
2018-06-21T20:24:16.300Z,16.11
2018-06-21T20:26:45.645Z,16.07
2018-06-21T20:29:20.930Z,16.13
2018-06-21T20:31:49.954Z,15.97
2018-06-21T20:34:21.642Z,15.84
2018-06-21T20:36:53.385Z,15.88
2018-06-21T20:39:21.913Z,15.77
2018-06-21T20:41:53.906Z,15.73
2018-06-21T20:44:22.336Z,15.70
2018-06-21T20:46:50.566Z,15.57
2018-06-21T20:49:26.643Z,15.43
2018-06-21T20:51:54.908Z,15.55
2018-06-21T20:54:23.067Z,15.47
2018-06-21T20:56:51.225Z,15.52
2018-06-21T20:59:19.365Z,15.39
2018-06-21T21:01:47.501Z,15.50
2018-06-21T21:04:15.711Z,15.46
2018-06-21T21:06:43.810Z,15.41
2018-06-21T21:09:11.960Z,15.31
2018-06-21T21:11:40.114Z,15.13
2018-06-21T21:14:08.251Z,15.06
2018-06-21T21:16:36.450Z,15.14
2018-06-21T21:19:04.641Z,14.93
2018-06-21T21:21:32.995Z,14.99
2018-06-21T21:24:01.186Z,14.85
2018-06-21T21:26:29.309Z,14.88
2018-06-21T21:28:57.416Z,14.86
2018-06-21T21:31:25.662Z,14.85
2018-06-21T21:33:54.176Z,14.71
2018-06-21T21:36:22.325Z,14.64
2018-06-21T21:38:50.438Z,14.64
2018-06-21T21:41:18.466Z,14.51
2018-06-21T21:43:46.630Z,14.51
2018-06-21T21:46:14.749Z,14.45
2018-06-21T21:48:42.790Z,14.54
2018-06-21T21:51:11.049Z,14.47
2018-06-21T21:53:39.344Z,14.58
2018-06-21T21:56:07.470Z,14.39
2018-06-21T21:58:35.826Z,14.52
2018-06-21T22:01:04.076Z,14.45
2018-06-21T22:03:32.166Z,14.44
2018-06-21T22:06:00.258Z,14.21
2018-06-21T22:08:28.474Z,14.21
2018-06-21T22:10:56.689Z,14.34
2018-06-21T22:13:24.855Z,14.18
2018-06-21T22:15:52.990Z,14.08
2018-06-21T22:18:21.066Z,14.02
2018-06-21T22:20:49.139Z,13.92
2018-06-21T22:23:17.339Z,13.91
2018-06-21T22:25:45.494Z,13.83
2018-06-21T22:28:13.587Z,13.79
2018-06-21T22:30:41.729Z,13.70
2018-06-21T22:33:09.776Z,13.65
2018-06-21T22:35:38.060Z,13.62
2018-06-21T22:38:06.141Z,13.61
2018-06-21T22:40:34.220Z,13.54
2018-06-21T22:43:02.349Z,13.57
2018-06-21T22:45:30.422Z,13.47
2018-06-21T22:47:58.548Z,13.47
2018-06-21T22:50:26.723Z,13.41
2018-06-21T22:52:54.782Z,13.38
2018-06-21T22:55:22.931Z,13.28
2018-06-21T22:57:51.032Z,13.31
2018-06-21T23:00:19.250Z,13.25
2018-06-21T23:02:47.337Z,13.21
2018-06-21T23:05:15.476Z,12.64
2018-06-21T23:07:43.543Z,13.21
2018-06-21T23:10:11.614Z,13.11
2018-06-21T23:12:39.679Z,13.22
2018-06-21T23:15:07.758Z,13.19
2018-06-21T23:17:35.825Z,13.25
2018-06-21T23:20:03.962Z,13.13
2018-06-21T23:22:32.138Z,13.12
2018-06-21T23:25:00.152Z,13.06
2018-06-21T23:27:28.285Z,13.00
2018-06-21T23:29:56.348Z,13.03
2018-06-21T23:32:24.506Z,12.98
2018-06-21T23:34:52.611Z,12.98
2018-06-21T23:37:20.685Z,13.04
2018-06-21T23:39:48.734Z,13.00
2018-06-21T23:42:16.837Z,12.90
2018-06-21T23:44:45.392Z,12.98
2018-06-21T23:47:13.434Z,12.94
2018-06-21T23:49:41.406Z,12.85
2018-06-21T23:52:09.562Z,12.85
2018-06-21T23:54:37.637Z,12.87
2018-06-21T23:57:05.771Z,12.84
2018-06-21T23:59:33.837Z,12.76
